Time;durP1;ratioP1;P1;durP2;ratioP2;P2;SDS_P1;SDS_P2;PMS_P1;PMS_P2;Temp;Humidity;BMP_temperature;BMP_pressure;BME280_temperature;BME280_humidity;BME280_pressure;Samples;Min_cycle;Max_cycle;Signal;HPM_P1;HPM_P2
2023/03/03 00:00:53;;;;;;;46.72;15.82;;;;;;;;;;5010975;28;20087;-66
2023/03/03 00:03:20;;;;;;;69.00;16.95;;;;;;;;;;5031445;28;20045;-66
2023/03/03 00:05:46;;;;;;;59.45;18.42;;;;;;;;;;5031578;28;20049;-66
2023/03/03 00:08:12;;;;;;;52.25;17.35;;;;;;;;;;5011202;28;20048;-66
2023/03/03 00:10:38;;;;;;;46.22;17.08;;;;;;;;;;5010990;28;20076;-66
2023/03/03 00:13:06;;;;;;;61.60;16.45;;;;;;;;;;5012629;28;20033;-67
2023/03/03 00:15:32;;;;;;;57.47;18.80;;;;;;;;;;5013345;28;20080;-66
2023/03/03 00:17:58;;;;;;;64.03;16.95;;;2.50;99.90;;;;;;5013756;28;20061;-66
2023/03/03 00:20:30;;;;;;;49.97;17.08;;;;;;;;;;5031223;28;20080;-66
2023/03/03 00:22:56;;;;;;;62.28;17.65;;;;;;;;;;5013507;28;20052;-66
2023/03/03 00:25:30;;;;;;;64.22;17.08;;;2.60;99.90;;;;;;5031096;28;20045;-66
2023/03/03 00:28:01;;;;;;;61.47;16.38;;;;;;;;;;5031903;28;20100;-66
2023/03/03 00:30:27;;;;;;;82.47;17.98;;;;;;;;;;5006836;28;20041;-66
2023/03/03 00:32:54;;;;;;;73.85;18.67;;;;;;;;;;5023629;28;20038;-65
2023/03/03 00:35:37;;;;;;;52.33;18.67;;;2.60;99.90;;;;;;5026785;28;20041;-66
2023/03/03 00:38:29;;;;;;;59.80;16.85;;;;;;;;;;5001575;28;20052;-66
2023/03/03 00:40:55;;;;;;;47.20;16.33;;;;;;;;;;5026782;28;20477;-66
2023/03/03 00:43:22;;;;;;;47.63;15.07;;;;;;;;;;5029732;28;20037;-66
2023/03/03 00:45:52;;;;;;;54.50;16.65;;;;;;;;;;5012974;28;20492;-66
2023/03/03 00:48:27;;;;;;;51.88;16.30;;;;;;;;;;5006913;28;20060;-66
2023/03/03 00:50:54;;;;;;;43.50;14.50;;;;;;;;;;5007786;28;20061;-66
2023/03/03 00:53:22;;;;;;;46.13;15.15;;;;;;;;;;5012210;28;20107;-66
2023/03/03 00:55:48;;;;;;;43.15;13.55;;;;;;;;;;5030269;28;20045;-66
2023/03/03 00:58:15;;;;;;;33.72;14.55;;;;;;;;;;5024637;28;20069;-66
2023/03/03 01:00:42;;;;;;;43.50;12.85;;;;;;;;;;5026991;28;20662;-66
2023/03/03 01:03:09;;;;;;;54.45;14.88;;;;;;;;;;5012247;28;20042;-66
2023/03/03 01:05:36;;;;;;;46.47;14.05;;;;;;;;;;5012347;28;20057;-66
2023/03/03 01:08:02;;;;;;;56.30;15.05;;;;;;;;;;5029768;28;20048;-66
2023/03/03 01:10:30;;;;;;;66.40;18.77;;;;;;;;;;5029240;28;20061;-66
2023/03/03 01:12:57;;;;;;;79.20;19.08;;;;;;;;;;5011486;28;20122;-66
2023/03/03 01:15:23;;;;;;;73.47;17.10;;;;;;;;;;5010228;28;20463;-66
2023/03/03 01:17:49;;;;;;;55.35;17.88;;;;;;;;;;5010162;28;20088;-66
2023/03/03 01:20:15;;;;;;;74.88;16.73;;;;;;;;;;5029877;28;20041;-66
2023/03/03 01:22:41;;;;;;;62.70;17.42;;;;;;;;;;4993726;28;20741;-68
2023/03/03 01:25:08;;;;;;;50.47;16.30;;;;;;;;;;5000590;28;20053;-66
2023/03/03 01:27:34;;;;;;;59.47;17.00;;;;;;;;;;5025737;28;20056;-67
2023/03/03 01:30:00;;;;;;;55.53;15.25;;;;;;;;;;5003806;28;20042;-66
2023/03/03 01:32:27;;;;;;;50.25;15.15;;;;;;;;;;5009370;28;20067;-66
2023/03/03 01:34:53;;;;;;;36.28;14.68;;;;;;;;;;5010960;28;20111;-66
2023/03/03 01:37:20;;;;;;;57.63;16.05;;;;;;;;;;5010424;28;20479;-66
2023/03/03 01:39:50;;;;;;;45.33;15.18;;;;;;;;;;5023683;28;20084;-67
2023/03/03 01:42:16;;;;;;;41.05;14.10;;;;;;;;;;5025900;28;20041;-67
2023/03/03 01:44:42;;;;;;;38.67;12.55;;;;;;;;;;5028686;28;20068;-66
2023/03/03 01:47:11;;;;;;;55.67;14.40;;;;;;;;;;5010887;28;20491;-66
2023/03/03 01:49:44;;;;;;;32.28;11.98;;;;;;;;;;5024278;28;20144;-67
2023/03/03 01:52:12;;;;;;;86.38;17.75;;;;;;;;;;5008406;28;20054;-66
2023/03/03 01:54:48;;;;;;;129.05;18.90;;;3.00;99.90;;;;;;5026028;28;20049;-66
2023/03/03 01:57:18;;;;;;;106.07;18.58;;;;;;;;;;5007880;28;20055;-66
2023/03/03 01:59:48;;;;;;;81.47;15.88;;;;;;;;;;5021474;28;20102;-66
2023/03/03 02:02:14;;;;;;;77.28;16.55;;;;;;;;;;5009591;28;20091;-66
2023/03/03 02:04:40;;;;;;;68.68;14.82;;;;;;;;;;5011129;28;20407;-66
2023/03/03 02:07:09;;;;;;;61.47;17.05;;;;;;;;;;5028818;28;20041;-66
2023/03/03 02:09:35;;;;;;;42.08;14.57;;;;;;;;;;5023606;28;20083;-66
2023/03/03 02:12:04;;;;;;;47.30;13.98;;;;;;;;;;5008134;28;20065;-66
2023/03/03 02:14:30;;;;;;;63.13;13.77;;;;;;;;;;5011188;28;20163;-66
2023/03/03 02:16:57;;;;;;;83.88;15.18;;;;;;;;;;5010541;28;20602;-66
2023/03/03 02:19:43;;;;;;;44.80;14.30;;;;;;;;;;5029392;28;20413;-66
2023/03/03 02:22:10;;;;;;;47.63;13.43;;;;;;;;;;5010016;28;20047;-66
2023/03/03 02:24:44;;;;;;;40.08;13.70;;;;;;;;;;5010742;28;20061;-66
2023/03/03 02:27:10;;;;;;;46.75;13.90;;;;;;;;;;5010482;28;20049;-66
2023/03/03 02:29:36;;;;;;;37.08;13.57;;;;;;;;;;5009871;28;20049;-66
2023/03/03 02:32:02;;;;;;;35.08;13.82;;;;;;;;;;5027892;28;20048;-67
2023/03/03 02:34:28;;;;;;;41.90;14.15;;;;;;;;;;4994767;28;20088;-66
2023/03/03 02:36:54;;;;;;;30.98;13.23;;;;;;;;;;5013442;28;20099;-66
2023/03/03 02:39:22;;;;;;;47.75;14.10;;;;;;;;;;5009707;28;20052;-67
2023/03/03 02:41:52;;;;;;;30.80;13.70;;;;;;;;;;5004504;28;20050;-66
2023/03/03 02:44:19;;;;;;;45.15;14.18;;;;;;;;;;5011871;28;20033;-66
2023/03/03 02:46:46;;;;;;;32.42;13.40;;;;;;;;;;5012675;28;20049;-66
2023/03/03 02:49:14;;;;;;;50.33;14.65;;;;;;;;;;5011281;28;20048;-66
2023/03/03 02:51:40;;;;;;;30.60;13.15;;;;;;;;;;5029836;28;20050;-66
2023/03/03 02:54:06;;;;;;;39.55;13.88;;;;;;;;;;5014710;28;20060;-66
2023/03/03 02:56:33;;;;;;;44.42;13.80;;;;;;;;;;5014616;28;20527;-66
2023/03/03 02:58:59;;;;;;;53.00;13.73;;;;;;;;;;5011136;28;20529;-66
2023/03/03 03:01:25;;;;;;;37.63;12.73;;;;;;;;;;5030659;28;20072;-66
2023/03/03 03:03:50;;;;;;;61.90;12.68;;;3.10;99.90;;;;;;5032298;28;20483;-66
2023/03/03 03:06:17;;;;;;;35.33;11.13;;;;;;;;;;5028780;28;20048;-66
2023/03/03 03:08:43;;;;;;;23.85;8.95;;;;;;;;;;5024622;28;20049;-66
2023/03/03 03:11:09;;;;;;;40.78;9.20;;;;;;;;;;5014063;28;20048;-66
2023/03/03 03:13:35;;;;;;;21.52;9.43;;;;;;;;;;5027776;28;20041;-66
2023/03/03 03:16:01;;;;;;;55.97;10.57;;;;;;;;;;5031130;28;20491;-66
2023/03/03 03:18:27;;;;;;;47.75;10.20;;;;;;;;;;5027845;28;20077;-66
2023/03/03 03:20:53;;;;;;;40.97;10.43;;;;;;;;;;5031509;28;20049;-66
2023/03/03 03:23:22;;;;;;;26.50;10.02;;;;;;;;;;5014210;28;20737;-66
2023/03/03 03:25:48;;;;;;;53.60;9.77;;;;;;;;;;5013330;28;20096;-67
2023/03/03 03:28:17;;;;;;;39.63;9.90;;;3.10;99.90;;;;;;5013119;28;20049;-66
2023/03/03 03:30:44;;;;;;;79.80;10.95;;;;;;;;;;5013101;28;20144;-66
2023/03/03 03:33:10;;;;;;;67.57;9.85;;;;;;;;;;5012716;28;20065;-66
2023/03/03 03:35:36;;;;;;;94.53;10.63;;;;;;;;;;5011394;28;20133;-66
2023/03/03 03:38:03;;;;;;;118.50;11.85;;;;;;;;;;5013053;28;20045;-66
2023/03/03 03:40:29;;;;;;;79.22;9.10;;;;;;;;;;4999636;28;20049;-66
2023/03/03 03:42:55;;;;;;;73.75;9.63;;;;;;;;;;5008065;28;20411;-66
2023/03/03 03:45:21;;;;;;;61.50;10.38;;;;;;;;;;5012996;28;20159;-66
2023/03/03 03:47:47;;;;;;;93.43;11.15;;;;;;;;;;5009276;28;20126;-67
2023/03/03 03:50:13;;;;;;;56.03;9.35;;;;;;;;;;5025664;28;20530;-66
2023/03/03 03:52:39;;;;;;;89.18;9.90;;;;;;;;;;5029642;28;20057;-66
2023/03/03 03:55:06;;;;;;;142.07;12.35;;;;;;;;;;5007219;28;20431;-66
2023/03/03 03:57:32;;;;;;;38.53;9.07;;;;;;;;;;5024602;28;20049;-66
2023/03/03 03:59:58;;;;;;;39.90;7.85;;;;;;;;;;5011804;28;20652;-66
2023/03/03 04:02:24;;;;;;;54.65;7.65;;;;;;;;;;5029018;28;20044;-66
2023/03/03 04:04:50;;;;;;;56.50;8.45;;;;;;;;;;5029903;28;20041;-67
2023/03/03 04:07:16;;;;;;;94.47;9.23;;;;;;;;;;5029798;28;21308;-66
2023/03/03 04:09:42;;;;;;;77.72;9.68;;;;;;;;;;5029895;28;20037;-66
2023/03/03 04:12:08;;;;;;;76.90;9.85;;;;;;;;;;5031461;28;20492;-66
2023/03/03 04:14:34;;;;;;;41.53;7.00;;;;;;;;;;5030938;28;20507;-66
2023/03/03 04:17:00;;;;;;;23.42;7.20;;;;;;;;;;5031431;28;20042;-66
2023/03/03 04:19:26;;;;;;;46.00;7.97;;;;;;;;;;5026159;28;20651;-67
2023/03/03 04:21:52;;;;;;;94.03;9.95;;;;;;;;;;5026762;28;20033;-66
2023/03/03 04:24:18;;;;;;;36.97;7.15;;;;;;;;;;5012701;28;20048;-66
2023/03/03 04:26:44;;;;;;;83.22;8.55;;;;;;;;;;5029889;28;20041;-66
2023/03/03 04:29:10;;;;;;;56.97;7.38;;;;;;;;;;5029746;28;20793;-67
2023/03/03 04:31:36;;;;;;;43.97;7.50;;;;;;;;;;5019098;28;20050;-66
2023/03/03 04:34:02;;;;;;;25.20;6.13;;;;;;;;;;5010984;28;20079;-66
2023/03/03 04:36:28;;;;;;;36.28;6.90;;;;;;;;;;5011252;28;20052;-65
2023/03/03 04:38:54;;;;;;;101.97;8.93;;;;;;;;;;5024618;28;20121;-66
2023/03/03 04:41:20;;;;;;;106.47;9.40;;;;;;;;;;5011377;28;20045;-67
2023/03/03 04:43:46;;;;;;;72.35;7.32;;;;;;;;;;4994642;28;20699;-66
2023/03/03 04:46:12;;;;;;;39.58;6.65;;;;;;;;;;5007862;28;20041;-66
2023/03/03 04:48:38;;;;;;;45.28;6.32;;;;;;;;;;5010918;28;20052;-66
2023/03/03 04:51:04;;;;;;;73.63;7.03;;;;;;;;;;5029830;28;20049;-66
2023/03/03 04:53:30;;;;;;;55.47;6.50;;;;;;;;;;5013127;28;20085;-66
2023/03/03 04:55:56;;;;;;;35.78;5.70;;;;;;;;;;5029839;28;20578;-67
2023/03/03 04:58:22;;;;;;;52.92;6.50;;;;;;;;;;5027050;28;20041;-66
2023/03/03 05:00:53;;;;;;;32.70;5.95;;;1.60;99.90;;;;;;5010342;28;20072;-66
2023/03/03 05:03:19;;;;;;;57.95;5.35;;;;;;;;;;5013719;28;20049;-66
2023/03/03 05:05:45;;;;;;;61.35;6.22;;;;;;;;;;5012129;28;20045;-66
2023/03/03 05:08:11;;;;;;;22.33;5.18;;;;;;;;;;5012183;28;20045;-66
2023/03/03 05:10:38;;;;;;;49.60;5.55;;;;;;;;;;5006573;28;20111;-66
2023/03/03 05:13:04;;;;;;;43.53;5.68;;;;;;;;;;5022841;28;20045;-66
2023/03/03 05:15:30;;;;;;;106.72;7.35;;;;;;;;;;5002203;28;20042;-66
2023/03/03 05:17:56;;;;;;;83.15;6.63;;;;;;;;;;5010307;28;20049;-66
2023/03/03 05:20:23;;;;;;;137.38;8.07;;;;;;;;;;5028896;28;20037;-66
2023/03/03 05:22:49;;;;;;;39.72;5.70;;;;;;;;;;4994636;28;20081;-66
2023/03/03 05:25:15;;;;;;;78.40;7.50;;;;;;;;;;5028687;28;20065;-66
2023/03/03 05:27:41;;;;;;;30.13;5.05;;;;;;;;;;5009638;28;20746;-68
2023/03/03 05:30:08;;;;;;;69.75;7.32;;;;;;;;;;5007290;28;20156;-68
2023/03/03 05:32:34;;;;;;;69.35;7.22;;;;;;;;;;5008212;28;20132;-69
2023/03/03 05:35:00;;;;;;;54.25;6.18;;;;;;;;;;5004603;28;20049;-68
2023/03/03 05:37:26;;;;;;;57.85;5.68;;;;;;;;;;5024272;28;20053;-69
2023/03/03 05:39:52;;;;;;;74.35;5.82;;;;;;;;;;5025039;28;20063;-70
2023/03/03 05:42:18;;;;;;;47.08;5.50;;;;;;;;;;5024379;28;20412;-70
2023/03/03 05:44:44;;;;;;;21.23;4.15;;;;;;;;;;5020197;28;20046;-71
2023/03/03 05:47:10;;;;;;;29.83;4.20;;;;;;;;;;5006290;28;20418;-67
2023/03/03 05:49:36;;;;;;;46.50;5.80;;;;;;;;;;5000153;28;20106;-67
2023/03/03 05:52:02;;;;;;;27.80;4.70;;;;;;;;;;5002288;28;20057;-71
2023/03/03 05:54:28;;;;;;;45.50;4.45;;;;;;;;;;5003332;28;20058;-70
2023/03/03 05:56:56;;;;;;;38.67;4.75;;;;;;;;;;4997105;28;20038;-69
2023/03/03 05:59:22;;;;;;;57.15;6.10;;;;;;;;;;4994927;28;20128;-70
2023/03/03 06:01:48;;;;;;;45.10;6.50;;;;;;;;;;5014811;28;20589;-69
2023/03/03 06:04:14;;;;;;;37.13;5.55;;;;;;;;;;5002022;28;20038;-69
2023/03/03 06:06:55;;;;;;;19.13;5.13;;;;;;;;;;4999908;28;20045;-67
2023/03/03 06:09:21;;;;;;;19.20;4.72;;;;;;;;;;4993599;28;20122;-67
2023/03/03 06:11:47;;;;;;;33.15;5.00;;;;;;;;;;5000170;28;20038;-68
2023/03/03 06:14:13;;;;;;;39.90;5.70;;;;;;;;;;4999012;28;20053;-70
2023/03/03 06:16:39;;;;;;;39.55;5.72;;;;;;;;;;5007808;28;20045;-66
2023/03/03 06:19:05;;;;;;;43.92;5.68;;;;;;;;;;5000375;28;20097;-70
2023/03/03 06:21:31;;;;;;;23.05;4.28;;;;;;;;;;4998525;28;20454;-69
2023/03/03 06:23:57;;;;;;;10.82;4.72;;;;;;;;;;5000481;28;20045;-68
2023/03/03 06:26:23;;;;;;;11.20;5.22;;;;;;;;;;4998853;28;20479;-68
2023/03/03 06:28:52;;;;;;;34.10;5.72;;;;;;;;;;5000457;28;20064;-68
2023/03/03 06:31:18;;;;;;;15.85;5.30;;;;;;;;;;5001619;28;20045;-72
2023/03/03 06:33:44;;;;;;;37.70;6.35;;;;;;;;;;4999518;28;20628;-71
2023/03/03 06:36:11;;;;;;;22.10;5.57;;;;;;;;;;4983621;28;20046;-69
2023/03/03 06:38:37;;;;;;;27.58;5.72;;;;;;;;;;4999236;28;20108;-69
2023/03/03 06:41:06;;;;;;;16.17;5.13;;;;;;;;;;5000257;28;20041;-72
2023/03/03 06:43:32;;;;;;;19.35;4.93;;;;;;;;;;5000183;28;20049;-70
2023/03/03 06:45:58;;;;;;;20.40;4.80;;;;;;;;;;5000009;28;20037;-69
2023/03/03 06:48:27;;;;;;;33.90;5.57;;;;;;;;;;4997697;28;20381;-68
2023/03/03 06:50:53;;;;;;;15.77;4.97;;;;;;;;;;4994007;28;20072;-69
2023/03/03 06:53:19;;;;;;;15.05;4.70;;;;;;;;;;4995725;28;20042;-68
2023/03/03 06:55:46;;;;;;;26.73;5.30;;;;;;;;;;5000111;28;20061;-68
2023/03/03 06:58:16;;;;;;;26.77;5.30;;;;;;;;;;4996381;28;20450;-67
2023/03/03 07:00:43;;;;;;;18.17;4.25;;;;;;;;;;5000837;28;20053;-71
2023/03/03 07:03:17;;;;;;;15.48;4.30;;;;;;;;;;4998794;28;20088;-71
2023/03/03 07:05:43;;;;;;;28.00;5.18;;;;;;;;;;4995439;28;20436;-74
2023/03/03 07:08:14;;;;;;;43.67;5.28;;;;;;;;;;4999345;28;20141;-67
2023/03/03 07:10:40;;;;;;;8.38;4.60;;;;;;;;;;4998044;28;20078;-64
2023/03/03 07:13:15;;;;;;;9.73;4.50;;;;;;;;;;4997739;28;20762;-65
2023/03/03 07:15:41;;;;;;;;;;;;;;;;;;4998761;28;20046;-65
2023/03/03 07:18:28;;;;;;;10.38;4.60;;;;;;;;;;4995712;28;20399;-65
2023/03/03 07:20:54;;;;;;;11.93;4.43;;;;;;;;;;4949517;28;20538;-65
2023/03/03 07:23:22;;;;;;;15.52;4.95;;;;;;;;;;5001826;28;20041;-65
2023/03/03 07:25:49;;;;;;;8.65;4.25;;;;;;;;;;5008428;28;20104;-69
2023/03/03 07:28:25;;;;;;;30.20;5.57;;;;;;;;;;5003191;28;20112;-68
2023/03/03 07:30:56;;;;;;;42.42;5.63;;;;;;;;;;4998571;28;20042;-70
2023/03/03 07:33:22;;;;;;;30.60;5.15;;;;;;;;;;4997105;28;20111;-70
2023/03/03 07:35:48;;;;;;;16.42;4.88;;;;;;;;;;5003272;28;20050;-69
2023/03/03 07:38:17;;;;;;;32.30;4.97;;;;;;;;;;5002452;28;20084;-66
2023/03/03 07:40:51;;;;;;;20.90;5.10;;;;;;;;;;4999974;28;20072;-66
2023/03/03 07:43:23;;;;;;;76.32;7.20;;;;;;;;;;4995502;28;20049;-67
2023/03/03 07:45:50;;;;;;;64.88;6.30;;;;;;;;;;5002354;28;20046;-70
2023/03/03 07:48:24;;;;;;;85.90;6.53;;;;;;;;;;5003050;28;20057;-71
2023/03/03 07:50:50;;;;;;;23.75;4.90;;;;;;;;;;4999217;28;20069;-69
2023/03/03 07:53:35;;;;;;;13.55;4.88;;;;;;;;;;5004021;28;20049;-69
2023/03/03 07:56:02;;;;;;;34.90;4.43;;;;;;;;;;5000633;28;20467;-69
2023/03/03 07:58:35;;;;;;;28.88;4.63;;;;;;;;;;5000406;28;20397;-69
2023/03/03 08:01:20;;;;;;;40.33;4.70;;;;;;;;;;4999625;28;20049;-71
2023/03/03 08:03:49;;;;;;;4.67;3.67;;;;;;;;;;5003371;28;20116;-70
2023/03/03 08:06:35;;;;;;;10.05;3.38;;;;;;;;;;5002524;28;20285;-69
2023/03/03 08:09:21;;;;;;;21.23;4.38;;;;;;;;;;4998266;28;20038;-67
2023/03/03 08:11:49;;;;;;;12.57;4.22;;;;;;;;;;4986385;28;20057;-68
2023/03/03 08:14:15;;;;;;;31.77;4.38;;;;;;;;;;5003730;28;20041;-68
2023/03/03 08:16:41;;;;;;;10.55;3.85;;;;;;;;;;5003624;28;20045;-69
2023/03/03 08:19:10;;;;;;;8.77;2.95;;;;;;;;;;4996320;28;20054;-67
2023/03/03 08:21:36;;;;;;;4.10;2.75;;;;;;;;;;4998216;28;20050;-66
2023/03/03 08:24:02;;;;;;;3.95;3.10;;;;;;;;;;5000857;28;20041;-68
2023/03/03 08:26:28;;;;;;;6.95;2.63;;;;;;;;;;5010484;28;20080;-66
2023/03/03 08:28:54;;;;;;;5.35;3.17;;;;;;;;;;5002583;28;20080;-66
2023/03/03 08:34:43;;;;;;;9.10;3.28;;;;;;;;;;4995290;28;20415;-67
2023/03/03 08:37:09;;;;;;;5.90;3.28;;;;;;;;;;5000598;28;20046;-68
2023/03/03 08:39:35;;;;;;;6.85;3.90;;;;;;;;;;5002497;28;20042;-68
2023/03/03 08:42:01;;;;;;;4.45;3.85;;;;;;;;;;4998591;28;20052;-67
2023/03/03 08:47:50;;;;;;;3.88;3.05;;;;;;;;;;4997028;28;20120;-66
2023/03/03 08:50:25;;;;;;;;;;;;;;;;;;5002717;28;20056;-65
2023/03/03 08:52:51;;;;;;;4.53;4.03;;;;;;;;;;5004675;28;19929;-67
2023/03/03 08:55:17;;;;;;;4.45;3.53;;;;;;;;;;5003868;28;20045;-65
2023/03/03 08:57:44;;;;;;;4.95;3.58;;;;;;;;;;5000435;28;20045;-68
2023/03/03 09:00:12;;;;;;;5.32;3.70;;;;;;;;;;4999334;28;20057;-71
2023/03/03 09:02:38;;;;;;;4.22;3.47;;;;;;;;;;5019757;28;20042;-68
2023/03/03 09:05:05;;;;;;;6.07;3.35;;;;;;;;;;5001767;28;20049;-66
2023/03/03 09:07:31;;;;;;;4.78;3.80;;;;;;;;;;4986997;28;20131;-64
2023/03/03 09:09:57;;;;;;;5.32;4.05;;;;;;;;;;5017412;28;20060;-68
2023/03/03 09:12:28;;;;;;;3.63;3.33;;;;;;;;;;5006853;28;20045;-69
2023/03/03 09:14:55;;;;;;;5.43;4.05;;;;;;;;;;5020258;28;20125;-67
2023/03/03 09:17:24;;;;;;;7.47;4.30;;;;;;;;;;5019504;28;20041;-67
2023/03/03 09:19:50;;;;;;;6.28;4.40;;;;;;;;;;5000193;28;20092;-70
2023/03/03 09:22:21;;;;;;;5.45;4.38;;;;;;;;;;5006302;28;20052;-68
2023/03/03 09:24:48;;;;;;;5.07;3.60;;;;;;;;;;5004692;28;20518;-63
2023/03/03 09:27:18;;;;;;;6.63;3.60;;;;;;;;;;5005073;28;20041;-69
2023/03/03 09:30:00;;;;;;;5.95;3.53;;;;;;;;;;5020042;28;20399;-70
2023/03/03 09:32:26;;;;;;;5.10;2.90;;;;;;;;;;5022254;28;20548;-70
2023/03/03 09:34:53;;;;;;;5.10;3.10;;;;;;;;;;5017420;28;20052;-71
2023/03/03 09:37:22;;;;;;;4.35;3.92;;;;;;;;;;5002081;28;20846;-68
2023/03/03 09:39:49;;;;;;;3.83;2.78;;;;;;;;;;5015912;28;20072;-68
2023/03/03 09:42:20;;;;;;;2.90;2.58;;;;;;;;;;5013771;28;20041;-70
2023/03/03 09:44:48;;;;;;;2.65;2.25;;;;;;;;;;4979926;28;20056;-69
2023/03/03 09:47:29;;;;;;;2.78;2.08;;;9.40;99.90;;;;;;5004034;28;20067;-68
2023/03/03 09:50:09;;;;;;;4.35;2.60;;;;;;;;;;5014229;28;20060;-69
2023/03/03 09:52:35;;;;;;;4.88;2.60;;;;;;;;;;5004138;28;20805;-69
2023/03/03 09:55:07;;;;;;;3.53;2.30;;;;;;;;;;5020517;28;20111;-69
2023/03/03 09:57:56;;;;;;;5.07;3.20;;;;;;;;;;5006225;28;20056;-67
2023/03/03 10:00:29;;;;;;;4.35;2.90;;;;;;;;;;5021948;28;20043;-67
2023/03/03 10:02:55;;;;;;;8.40;3.35;;;;;;;;;;4999400;28;20041;-67
2023/03/03 10:05:23;;;;;;;3.60;3.05;;;;;;;;;;5018501;28;20045;-70
2023/03/03 10:08:11;;;;;;;7.30;2.95;;;;;;;;;;5002694;28;20092;-67
2023/03/03 10:10:48;;;;;;;3.83;2.72;;;;;;;;;;5019919;28;20049;-66
2023/03/03 10:13:17;;;;;;;3.28;2.95;;;;;;;;;;5002667;28;20744;-66
2023/03/03 10:16:24;;;;;;;4.45;3.35;;;10.90;99.90;;;;;;5004105;28;20106;-67
2023/03/03 10:19:15;;;;;;;5.15;3.13;;;;;;;;;;4999424;28;20060;-66
2023/03/03 10:21:58;;;;;;;4.25;2.63;;;;;;;;;;4997720;28;20041;-66
2023/03/03 10:24:42;;;;;;;3.72;2.42;;;15.60;99.90;;;;;;5003923;28;20045;-66
2023/03/03 10:27:44;;;;;;;3.45;2.22;;;14.10;99.90;;;;;;5020082;28;20112;-66
2023/03/03 10:30:31;;;;;;;4.78;2.22;;;13.40;99.90;;;;;;5020069;28;20075;-65
2023/03/03 10:33:22;;;;;;;5.95;2.58;;;14.80;99.90;;;;;;5018229;28;20140;-68
2023/03/03 10:36:26;;;;;;;4.95;2.20;;;13.60;99.90;;;;;;5003059;28;20161;-68
2023/03/03 10:39:00;;;;;;;2.47;2.28;;;13.50;99.90;;;;;;4943443;28;20145;-69
2023/03/03 10:41:47;;;;;;;4.63;2.33;;;13.40;99.90;;;;;;5010798;28;20630;-66
2023/03/03 10:44:13;;;;;;;3.45;2.55;;;;;;;;;;5003722;28;20049;-69
2023/03/03 10:46:39;;;;;;;5.07;2.92;;;;;;;;;;5019015;28;20443;-72
2023/03/03 10:49:15;;;;;;;4.13;2.10;;;16.10;99.90;;;;;;5001625;28;20462;-69
2023/03/03 10:52:02;;;;;;;2.35;2.15;;;15.50;99.90;;;;;;5002974;28;20492;-68
2023/03/03 10:54:50;;;;;;;4.75;1.95;;;14.90;99.90;;;;;;5003424;28;20472;-68
2023/03/03 10:57:40;;;;;;;4.63;2.78;;;14.70;99.90;;;;;;5003449;28;20049;-67
2023/03/03 11:00:39;;;;;;;6.80;2.40;;;14.40;99.90;;;;;;5004826;28;20084;-67
2023/03/03 11:03:23;;;;;;;2.78;1.65;;;14.30;99.90;;;;;;4997632;28;20050;-67
2023/03/03 11:05:59;;;;;;;3.67;1.80;;;13.00;99.90;;;;;;5006045;28;20050;-65
2023/03/03 11:08:35;;;;;;;3.25;1.98;;;12.80;99.90;;;;;;5004664;28;20046;-65
2023/03/03 11:11:19;;;;;;;4.53;2.10;;;12.00;99.90;;;;;;5002810;28;20046;-67
2023/03/03 11:14:02;;;;;;;4.47;2.28;;;11.80;99.90;;;;;;5002559;28;20129;-68
2023/03/03 11:16:36;;;;;;;4.07;2.22;;;11.20;99.90;;;;;;5005238;28;20068;-69
2023/03/03 11:19:23;;;;;;;4.95;2.10;;;10.80;99.90;;;;;;4996127;28;20407;-68
2023/03/03 11:22:06;;;;;;;2.70;1.45;;;10.30;99.90;;;;;;5003319;28;20054;-69
2023/03/03 11:25:00;;;;;;;2.65;1.27;;;10.10;99.90;;;;;;5004157;28;20065;-70
2023/03/03 11:27:31;;;;;;;3.90;1.42;;;;;;;;;;4997088;28;20073;-66
2023/03/03 11:29:57;;;;;;;6.07;1.48;;;;;;;;;;5000404;28;20045;-66
2023/03/03 11:32:33;;;;;;;5.10;1.23;;;;;;;;;;5001582;28;20081;-67
2023/03/03 11:35:18;;;;;;;2.08;1.10;;;;;;;;;;5002400;28;20123;-64
2023/03/03 11:37:43;;;;;;;5.03;1.33;;;;;;;;;;5004670;28;20046;-64
2023/03/03 11:40:18;;;;;;;5.53;1.70;;;;;;;;;;5015270;28;20101;-65
2023/03/03 11:42:44;;;;;;;6.82;1.48;;;;;;;;;;5001864;28;20038;-65
2023/03/03 11:45:10;;;;;;;4.75;1.17;;;;;;;;;;5003815;28;20057;-64
2023/03/03 11:47:49;;;;;;;3.67;1.52;;;;;;;;;;5001494;28;20042;-66
2023/03/03 11:50:35;;;;;;;3.22;1.35;;;;;;;;;;4999256;28;20049;-65
2023/03/03 11:53:01;;;;;;;;;;;;;;;;;;4981201;28;20059;-64
2023/03/03 11:55:30;;;;;;;4.68;1.15;;;;;;;;;;4985311;28;19926;-64
2023/03/03 11:58:15;;;;;;;4.07;1.33;;;;;;;;;;4982408;28;20066;-64
2023/03/03 12:00:45;;;;;;;2.92;1.27;;;;;;;;;;4982203;28;20216;-64
2023/03/03 12:03:25;;;;;;;4.55;1.40;;;;;;;;;;4982189;28;20038;-66
2023/03/03 12:05:56;;;;;;;4.57;1.50;;;;;;;;;;4984112;28;20050;-66
2023/03/03 12:08:40;;;;;;;4.60;1.48;;;;;;;;;;4986891;28;20471;-66
2023/03/03 12:11:13;;;;;;;2.57;1.23;;;;;;;;;;4985695;28;20117;-70
2023/03/03 12:13:49;;;;;;;2.72;1.27;;;;;;;;;;4981804;28;21068;-67
2023/03/03 12:16:33;;;;;;;3.08;1.83;;;9.40;99.90;;;;;;4985716;28;20042;-67
2023/03/03 12:19:06;;;;;;;6.82;1.30;;;;;;;;;;4983517;28;20049;-71
2023/03/03 12:21:51;;;;;;;5.35;1.23;;;9.60;99.90;;;;;;4984552;28;20129;-68
2023/03/03 12:24:23;;;;;;;2.70;1.20;;;;;;;;;;4971597;28;20069;-67
2023/03/03 12:26:52;;;;;;;4.18;1.17;;;;;;;;;;4984843;28;20046;-66
2023/03/03 12:29:35;;;;;;;2.65;1.13;;;;;;;;;;4984675;28;20500;-67
2023/03/03 12:32:20;;;;;;;2.95;1.25;;;;;;;;;;4984811;28;20057;-67
2023/03/03 12:35:04;;;;;;;2.87;1.50;;;9.60;99.90;;;;;;4982109;28;20455;-68
2023/03/03 12:37:45;;;;;;;2.45;1.02;;;;;;;;;;4982865;28;20054;-69
2023/03/03 12:40:18;;;;;;;3.30;1.33;;;;;;;;;;4982273;28;20046;-67
2023/03/03 12:42:53;;;;;;;3.53;1.00;;;;;;;;;;4979238;28;20057;-67
2023/03/03 12:45:19;;;;;;;;;;;;;;;;;;4986344;28;20077;-68
2023/03/03 12:47:50;;;;;;;2.03;1.50;;;;;;;;;;4986561;28;19972;-68
2023/03/03 12:50:19;;;;;;;5.78;1.40;;;;;;;;;;4986137;28;20447;-68
2023/03/03 12:53:07;;;;;;;3.13;1.42;;;9.70;99.90;;;;;;4986347;28;20058;-68
2023/03/03 12:55:54;;;;;;;2.83;1.73;;;9.80;99.90;;;;;;4987180;28;20500;-68
2023/03/03 12:58:27;;;;;;;4.82;1.20;;;;;;;;;;4985895;28;20077;-67
2023/03/03 13:00:53;;;;;;;4.45;1.27;;;;;;;;;;4986025;28;20484;-68
2023/03/03 13:03:32;;;;;;;3.92;1.40;;;;;;;;;;4985832;28;20084;-68
2023/03/03 13:06:04;;;;;;;6.57;1.38;;;;;;;;;;4982298;28;20046;-68
2023/03/03 13:08:46;;;;;;;3.20;1.05;;;;;;;;;;4986426;28;20060;-68
2023/03/03 13:11:31;;;;;;;8.05;1.90;;;;;;;;;;4979938;28;20814;-68
2023/03/03 13:14:19;;;;;;;3.80;1.42;;;;;;;;;;4984942;28;20049;-68
2023/03/03 13:17:01;;;;;;;3.22;1.33;;;;;;;;;;4983568;28;20057;-68
2023/03/03 13:19:46;;;;;;;5.72;1.58;;;;;;;;;;4978883;28;20042;-68
2023/03/03 13:22:20;;;;;;;3.05;1.38;;;;;;;;;;4979830;28;20148;-68
2023/03/03 13:25:05;;;;;;;4.60;1.42;;;;;;;;;;4980407;28;20039;-68
2023/03/03 13:27:44;;;;;;;4.20;1.58;;;10.20;99.90;;;;;;4982405;28;20449;-68
2023/03/03 13:30:29;;;;;;;3.40;1.50;;;10.10;99.90;;;;;;4981413;28;20149;-68
2023/03/03 13:33:34;;;;;;;6.13;2.30;;;10.10;99.90;;;;;;4983194;28;20042;-68
2023/03/03 13:36:09;;;;;;;4.13;1.00;;;;;;;;;;4985519;28;20192;-68
2023/03/03 13:38:49;;;;;;;7.72;1.55;;;;;;;;;;4986190;28;20052;-68
2023/03/03 13:41:21;;;;;;;3.75;1.40;;;;;;;;;;4983640;28;20039;-68
2023/03/03 13:43:48;;;;;;;5.97;1.60;;;;;;;;;;4982624;28;20042;-68
2023/03/03 13:46:34;;;;;;;5.13;1.30;;;;;;;;;;4984785;28;20504;-68
2023/03/03 13:49:00;;;;;;;2.85;1.73;;;;;;;;;;4982413;28;20065;-68
2023/03/03 13:51:41;;;;;;;9.60;1.52;;;;;;;;;;4992972;28;20088;-68
2023/03/03 13:54:26;;;;;;;7.25;1.70;;;;;;;;;;5000710;28;20632;-68
2023/03/03 13:57:09;;;;;;;3.58;1.42;;;10.10;99.90;;;;;;5001852;28;20048;-69
2023/03/03 13:59:41;;;;;;;10.60;1.85;;;;;;;;;;5003983;28;20146;-66
2023/03/03 14:02:27;;;;;;;7.75;1.65;;;;;;;;;;5000446;28;20048;-67
2023/03/03 14:05:11;;;;;;;8.50;1.45;;;10.00;99.90;;;;;;5003741;28;20505;-67
2023/03/03 14:07:40;;;;;;;9.15;1.73;;;;;;;;;;5002785;28;20817;-66
2023/03/03 14:10:24;;;;;;;4.90;1.73;;;9.90;99.90;;;;;;5002668;28;20037;-68
2023/03/03 14:13:12;;;;;;;5.80;2.28;;;10.00;99.90;;;;;;5002047;28;20088;-70
2023/03/03 14:15:45;;;;;;;10.90;1.58;;;;;;;;;;5003833;28;20092;-68
2023/03/03 14:18:17;;;;;;;10.77;1.75;;;;;;;;;;5003919;28;20149;-69
2023/03/03 14:20:51;;;;;;;10.60;2.08;;;;;;;;;;5004802;28;20034;-67
2023/03/03 14:23:24;;;;;;;12.45;2.25;;;;;;;;;;5004096;28;20033;-67
2023/03/03 14:25:51;;;;;;;12.70;3.53;;;;;;;;;;5002250;28;20156;-68
2023/03/03 14:28:18;;;;;;;9.82;2.20;;;;;;;;;;5003925;28;20067;-68
2023/03/03 14:30:44;;;;;;;6.22;1.58;;;;;;;;;;4999716;28;20123;-68
2023/03/03 14:33:10;;;;;;;8.15;2.08;;;;;;;;;;4999142;28;20076;-68
2023/03/03 14:35:37;;;;;;;7.18;1.73;;;;;;;;;;5000896;28;20093;-67
2023/03/03 14:38:09;;;;;;;6.60;1.65;;;;;;;;;;4995281;28;20056;-69
2023/03/03 14:40:37;;;;;;;5.15;1.80;;;;;;;;;;4979025;28;20046;-68
2023/03/03 14:43:21;;;;;;;6.68;2.05;;;;;;;;;;4997224;28;20559;-69
2023/03/03 14:45:47;;;;;;;8.23;2.53;;;;;;;;;;4997690;28;20046;-67
2023/03/03 14:48:16;;;;;;;7.57;1.90;;;;;;;;;;4996696;28;20056;-68